Etusivu
METAR-TAF:

METAR-TAF

Lentoasemat :

Gibraltarin lentoasema

Gibraltar, Gibraltar

Leveyspiiri: 36-09N, Pituuspiiri: 005-21W, korkeus merenpinnasta: 5 m

Tämänhetkinen sää

Tämä raportti tehtiin 45 minuuttia sitten, kello 19.50 UTC
Tuuli 8 kn idästä
Lämpötila 24°C
Kosteus 89%
Ilmanpaine 1013 hPa
Näkyvyys 10 km tai enemmän
Muutamia pilviä 1500 ft:n korkeudessa

METAR: LXGB 141950Z 10008KT 9999 FEW015 24/22 Q1013 NOSIG RMK BLU BLU

Aika: 22:35 (20:35 UTC)

Sääennuste

Tämä raportti tehtiin 3 tuntia ja 54 minuuttia sitten, kello 16.41 UTC
Ennuste voimassa 14. päivästä klo 18 UTC - 14. päivään klo 23 UTC
Tuuli 8 kn idästä
Näkyvyys 10 km tai enemmän
Muutamia pilviä 1200 ft:n korkeudessa
Todennäköisyys 30% :
Ajoittain
14. päivästä klo 19 UTC - 14. päivään klo 23 UTC
Näkyvyys: 6000 m
Hajanaisia pilviä 800 ft:n korkeudessa
usvaa

TAF: LXGB 141641Z 1418/1423 09008KT 9999 FEW012 PROB30 TEMPO 1419/1423 6000 HZ SCT008

Säähavainnot ja -ennusteet yli 4000 lentoasemalta (METAR- ja TAF-raportit).

Käytössä olevat sääasemat on merkitty karttaan keltaisilla ja punaisilla pisteillä.

Aseta hiiri pisteen päälle nähdäksesi sääaseman nimen.

Klikkaa sitten nähdäksesi säähavainnot ja -ennusteet.

Kartan vaihtaminen: klikkaa mustalla rastilla varustettuja vihreitä pisteitä, niin voit zoomata sisään; viivalla varustettua vihreää pistettä, niin voit zoomata ulos tai vihreitä nuolia, niin pääset viereisille kartoille.


METAR-TAF: